• Join FlightAware (Why Join?)
  • Login
  • US Flag 
09:12AM EDT


 

Airport Tracker/Info


-or-


 

Live Flight TrackerFlight Track Log ✈ EJA929 ✈ 02-Sep-2013 ✈ KBFI - KSBP

Flight Track Log - Related Links

Times and Time Zones

All times are in EDT time to prevent confusion due to time zone crossing. See the EJA929 flight status page for this flight to view local times or setup timezone preferences in your user account.

Time Position Orientation Groundspeed Altitude Reporting Facility
EDT Latitude Longitude Course Direction KTS MPH feet Rate Location/Type
01:48PM 47.5092 -122.2861 152° Southeast 197 227 1,200  Level Seattle Center
01:49PM 47.4367 -122.2283 152° Southeast 207 238 5,000 2,880 Climbing Seattle Center
01:50PM 47.3725 -122.2094 169° South 233 268 8,300 3,000 Climbing Seattle Center
01:51PM 47.3019 -122.1886 169° South 258 297 11,200 2,520 Climbing Seattle Center
01:52PM 47.2261 -122.1667 169° South 279 321 13,500 2,040 Climbing Seattle Center
01:53PM 47.1344 -122.1389 168° South 314 361 15,400 1,800 Climbing Seattle Center
01:54PM 47.0489 -122.1700 194° South 333 383 17,200 1,680 Climbing Seattle Center
01:55PM 46.9678 -122.2367 209° Southwest 349 402 18,900 1,680 Climbing Seattle Center
01:56PM 46.8719 -122.2403 181° South 353 406 20,700 1,740 Climbing Seattle Center
01:57PM 46.7736 -122.2239 173° South 358 412 22,500 1,800 Climbing Seattle Center
01:58PM 46.6736 -122.2078 174° South 364 419 24,400 1,920 Climbing Seattle Center
01:59PM 46.5733 -122.1897 173° South 366 421 26,500 2,040 Climbing Seattle Center
02:00PM 46.4522 -122.1689 173° South 367 422 28,600 1,860 Climbing Seattle Center
02:01PM 46.3486 -122.1531 174° South 376 433 30,300 1,740 Climbing Seattle Center
02:02PM 46.2450 -122.1367 174° South 378 435 32,200 1,920 Climbing Seattle Center
02:03PM 46.1439 -122.1228 175° South 376 433 34,300 1,860 Climbing Seattle Center
02:04PM 46.0419 -122.1064 174° South 373 429 36,100 1,560 Climbing Seattle Center
02:05PM 45.9408 -122.0886 173° South 369 425 37,500 1,140 Climbing Seattle Center
02:06PM 45.8383 -122.0731 174° South 371 427 38,500 960 Climbing Seattle Center
02:07PM 45.7314 -122.0564 174° South 383 441 39,500 960 Climbing Seattle Center
02:08PM 45.6219 -122.0397 174° South 394 453 40,500 720 Climbing Seattle Center
02:09PM 45.5128 -122.0219 173° South 397 457 41,000 240 Climbing Seattle Center
02:10PM 45.3758 -122.0019 174° South 411 473 41,000  Level Seattle Center
02:11PM 45.2581 -121.9828 173° South 423 487 41,000  Level Seattle Center
02:13PM 45.1394 -121.9653 174° South 427 491 41,000  Level Seattle Center
02:14PM 45.0219 -121.9467 174° South 426 490 41,000  Level Seattle Center
02:15PM 44.9017 -121.9294 174° South 429 494 41,000  Level Seattle Center
02:16PM 44.7822 -121.9108 174° South 432 497 41,000  Level Seattle Center
02:17PM 44.6717 -121.8942 174° South 429 494 41,000  Level Seattle Center
02:18PM 44.5544 -121.8769 174° South 427 491 41,000  Level Seattle Center
02:19PM 44.4122 -121.8553 174° South 431 496 41,000  Level Seattle Center
02:20PM 44.2928 -121.8386 174° South 433 498 41,000  Level Seattle Center
02:21PM 44.1742 -121.8206 174° South 431 496 41,000  Level Seattle Center
02:22PM 44.0564 -121.8039 174° South 429 494 41,000  Level Seattle Center
02:23PM 43.9375 -121.7864 174° South 431 496 41,000  Level Seattle Center
02:24PM 43.8064 -121.7667 174° South 436 502 41,000  Level Seattle Center
02:25PM 43.6872 -121.7514 175° South 435 501 41,000  Level Seattle Center
02:26PM 43.5675 -121.7328 174° South 433 498 41,000  Level Seattle Center
02:27PM 43.4483 -121.7156 174° South 432 497 41,000  Level Seattle Center
02:28PM 43.3283 -121.6981 174° South 433 498 41,000  Level Seattle Center
02:29PM 43.2081 -121.6811 174° South 435 501 41,000  Level Seattle Center
02:30PM 43.0869 -121.6642 174° South 436 502 41,000  Level Seattle Center
02:31PM 42.9650 -121.6472 174° South 440 506 41,000  Level Seattle Center
02:32PM 42.8189 -121.6244 173° South 440 506 41,000  Level Seattle Center
02:33PM 42.6972 -121.6100 175° South 438 504 41,000  Level Seattle Center
02:34PM 42.5753 -121.5903 173° South 439 505 41,000  Level Seattle Center
02:35PM 42.4522 -121.5744 175° South 444 511 41,000  Level Seattle Center
02:36PM 42.3289 -121.5578 174° South 442 509 41,000  Level Seattle Center
02:37PM 42.2067 -121.5406 174° South 440 506 41,000  Level Seattle Center
02:38PM 42.0833 -121.5239 174° South 441 507 41,000  Level Seattle Center
02:39PM 41.9592 -121.5075 174° South 443 510 41,000  Level Seattle Center
02:40PM 41.8350 -121.4892 174° South 445 512 41,000  Level Seattle Center
02:41PM 41.7108 -121.4739 175° South 447 514 41,000  Level Seattle Center
02:42PM 41.5914 -121.4578 174° South 434 499 41,000  Level Seattle Center
02:43PM 41.4681 -121.4411 174° South 439 505 41,000  Level Seattle Center
02:44PM 41.3436 -121.4239 174° South 447 514 41,000  Level Seattle Center
02:45PM 41.1933 -121.4033 174° South 450 518 41,000  Level Seattle Center
02:46PM 41.0694 -121.3875 174° South 449 517 41,000  Level Seattle Center
02:47PM 40.9994 -121.3736 171° South 450 518 41,000  Level Oakland Center
02:48PM 40.8758 -121.3572 174° South 447 514 41,000  Level Oakland Center
02:49PM 40.7464 -121.3414 175° South 450 518 41,000  Level Oakland Center
02:50PM 40.6233 -121.3236 174° South 445 512 41,000  Level Oakland Center
02:51PM 40.5039 -121.3083 174° South 442 509 41,000  Level Oakland Center
02:52PM 40.3533 -121.2900 175° South 449 517 41,000  Level Oakland Center
02:53PM 40.2278 -121.2739 174° South 450 518 41,000  Level Oakland Center
02:54PM 40.1022 -121.2575 174° South 452 520 41,000  Level Oakland Center
02:55PM 39.9756 -121.2419 175° South 454 522 41,000  Level Oakland Center
02:56PM 39.8494 -121.2244 174° South 454 522 41,000  Level Oakland Center
02:57PM 39.7225 -121.2081 174° South 455 524 41,000  Level Oakland Center
02:58PM 39.5944 -121.1933 175° South 460 529 41,000  Level Oakland Center
02:59PM 39.4517 -121.1739 174° South 459 528 41,000  Level Oakland Center
03:00PM 39.3253 -121.1575 174° South 457 526 41,000  Level Oakland Center
03:01PM 39.1981 -121.1419 175° South 458 527 41,000  Level Oakland Center
03:02PM 39.0708 -121.1269 175° South 458 527 41,000  Level Oakland Center
03:03PM 38.9417 -121.1097 174° South 461 531 41,000  Level Oakland Center
03:04PM 38.8133 -121.0939 175° South 462 532 41,000  Level Oakland Center
03:05PM 38.6581 -121.0731 174° South 461 531 41,000  Level Oakland Center
03:06PM 38.5247 -121.0578 175° South 469 540 41,000  Level Oakland Center
03:07PM 38.3928 -121.0433 175° South 467 537 41,000  Level Oakland Center
03:08PM 38.2619 -121.0272 174° South 467 537 41,000  Level Oakland Center
03:09PM 38.1322 -121.0111 174° South 467 537 41,000  Level Oakland Center
03:10PM 38.0019 -120.9931 174° South 469 540 41,000  Level Oakland Center
03:11PM 37.8711 -120.9725 173° South 471 542 41,000  Level Oakland Center
03:13PM 37.7394 -120.9508 173° South 475 547 41,000  Level Oakland Center
03:14PM 37.6089 -120.9297 173° South 473 544 41,000 -300 Level Oakland Center
03:15PM 37.4522 -120.9056 173° South 472 543 40,500 -1,560 Descending Oakland Center
03:16PM 37.3264 -120.8847 172° South 460 529 37,900 -2,640 Descending Oakland Center
03:17PM 37.1961 -120.8642 173° South 468 539 35,100 -2,760 Descending Oakland Center
03:18PM 37.0647 -120.8442 173° South 474 545 32,300 -2,940 Descending Oakland Center
03:19PM 36.9144 -120.8194 173° South 488 562 29,100 -2,940 Descending Oakland Center
03:20PM 36.7806 -120.7978 173° South 487 560 26,300 -2,760 Descending Oakland Center
03:21PM 36.6522 -120.7775 173° South 472 543 23,500 -2,760 Descending Oakland Center
03:22PM 36.5322 -120.7575 172° South 440 506 20,700 -1,740 Descending Oakland Center
03:23PM 36.4164 -120.7392 173° South 424 488 20,000 -900 Descending Oakland Center
03:24PM 36.3019 -120.7172 171° South 418 481 18,900 -1,740 Descending Oakland Center
03:25PM 36.1614 -120.6972 173° South 421 484 16,500 -2,160 Descending Oakland Center
03:26PM 36.0539 -120.6786 172° South 395 455 14,500 -2,040 Descending Oakland Center
03:27PM 35.9494 -120.6631 173° South 380 437 12,400 -1,980 Descending Oakland Center
03:28PM 35.8594 -120.6517 174° South 332 382 10,500 -1,740 Descending Oakland Center
03:29PM 35.7803 -120.6422 174° South 297 342 8,900 -1,740 Descending Oakland Center
03:30PM 35.7058 -120.6322 174° South 276 318 7,000 -1,020 Descending Oakland Center
03:31PM 35.6192 -120.6286 178° South 264 304 6,900 -60 Descending Oakland Center
03:32PM 35.5469 -120.6317 182° South 261 300 6,900  Level Oakland Center
03:33PM 35.4739 -120.6333 181° South 264 304 6,900 -420 Level Oakland Center
03:34PM 35.4017 -120.6364 182° South 267 307 6,100 -1,080 Descending Los Angeles Center
03:35PM 35.3775 -120.6339 175° South 264 304 5,400 -1,620 Descending Los Angeles Center
03:35PM 35.3217 -120.6356 181° South 256 295 4,300 -1,920 Descending Los Angeles Center
03:36PM 35.2658 -120.6375 182° South 230 265 2,500 -1,200 Descending Los Angeles Center
03:37PM 35.2442 -120.6169 142° Southeast 206 237 2,600 -180 Climbing Los Angeles Center
03:38PM 35.2133 -120.5703 129° Southeast 183 211 2,300 -480 Descending Los Angeles Center
03:39PM 35.1900 -120.6106 235° Southwest 181 208 1,700 -600 Descending Los Angeles Center
03:41PM 35.2373 -120.6426 North  Level Estimated